createdAt,value
2022-11-27T00:01:29.991Z,93.96
2022-11-27T00:04:32.915Z,96.17
2022-11-27T00:07:35.544Z,96.57
2022-11-27T00:10:38.387Z,95.92
2022-11-27T00:13:41.502Z,95.12
2022-11-27T00:16:44.914Z,94.95
2022-11-27T00:19:47.470Z,95.92
2022-11-27T00:22:50.374Z,97.64
2022-11-27T00:25:53.864Z,96.43
2022-11-27T00:28:56.961Z,95.05
2022-11-27T00:31:59.608Z,94.77
2022-11-27T00:35:02.832Z,94.45
2022-11-27T00:38:08.036Z,94.07
2022-11-27T00:41:12.272Z,95.12
2022-11-27T00:44:14.870Z,94.27
2022-11-27T00:47:17.784Z,94.58
2022-11-27T00:50:20.441Z,94.10
2022-11-27T00:53:23.269Z,95.11
2022-11-27T00:56:32.953Z,94.99
2022-11-27T00:59:36.838Z,94.73
2022-11-27T01:02:39.515Z,96.26
2022-11-27T01:05:43.507Z,95.97
2022-11-27T01:08:47.796Z,95.40
2022-11-27T01:11:50.769Z,95.07
2022-11-27T01:14:53.430Z,94.67
2022-11-27T01:17:56.305Z,94.49
2022-11-27T01:20:59.005Z,93.88
2022-11-27T01:24:04.119Z,96.15
2022-11-27T01:27:06.704Z,95.69
2022-11-27T01:30:10.778Z,95.30
2022-11-27T01:33:13.493Z,94.69
2022-11-27T01:36:16.440Z,94.62
2022-11-27T01:39:21.403Z,94.60
2022-11-27T01:42:24.288Z,95.67
2022-11-27T01:45:26.947Z,94.97
2022-11-27T01:48:29.890Z,94.76
2022-11-27T01:51:33.010Z,94.03
2022-11-27T01:54:48.463Z,93.88
2022-11-27T01:57:56.632Z,94.30
2022-11-27T02:01:00.556Z,93.41
2022-11-27T02:04:04.008Z,94.10
2022-11-27T02:07:06.948Z,96.96
2022-11-27T02:10:10.188Z,94.81
2022-11-27T02:13:30.826Z,94.37
2022-11-27T02:17:14.525Z,96.11
2022-11-27T02:20:23.645Z,96.27
2022-11-27T02:23:42.403Z,95.50
2022-11-27T02:26:59.175Z,94.62
2022-11-27T02:30:05.315Z,94.46
2022-11-27T02:33:13.398Z,94.51
2022-11-27T02:36:23.374Z,95.13
2022-11-27T02:39:35.427Z,95.47
2022-11-27T02:43:02.280Z,96.25
2022-11-27T02:46:08.257Z,95.52
2022-11-27T02:49:16.062Z,95.38
2022-11-27T02:52:20.346Z,96.69
2022-11-27T02:55:27.865Z,96.20
2022-11-27T02:58:31.182Z,95.89
2022-11-27T03:01:40.696Z,94.93
2022-11-27T03:04:49.896Z,95.83
2022-11-27T03:07:54.609Z,94.88
2022-11-27T03:11:12.096Z,94.58
2022-11-27T03:14:16.129Z,93.94
2022-11-27T03:18:01.141Z,94.42
2022-11-27T03:21:20.839Z,93.82
2022-11-27T03:24:24.549Z,93.64
2022-11-27T03:27:35.195Z,93.78
2022-11-27T03:30:38.334Z,93.21
2022-11-27T03:33:41.007Z,93.35
2022-11-27T03:36:46.088Z,93.71
2022-11-27T03:39:49.011Z,93.70
2022-11-27T03:43:09.013Z,93.77
2022-11-27T03:46:36.829Z,94.57
2022-11-27T03:49:56.256Z,97.14
2022-11-27T03:53:22.494Z,95.53
2022-11-27T03:56:31.653Z,95.37
2022-11-27T03:59:39.284Z,94.93
2022-11-27T04:02:52.013Z,95.27
2022-11-27T04:05:54.890Z,94.83
2022-11-27T04:08:58.486Z,94.63
2022-11-27T04:12:01.443Z,94.72
2022-11-27T04:15:05.078Z,95.04
2022-11-27T04:18:08.067Z,94.48
2022-11-27T04:21:12.784Z,94.88
2022-11-27T04:24:16.949Z,94.67
2022-11-27T04:27:19.573Z,93.94
2022-11-27T04:30:22.475Z,93.96
2022-11-27T04:33:25.375Z,93.66
2022-11-27T04:36:28.172Z,93.48
2022-11-27T04:39:31.157Z,93.75
2022-11-27T04:42:34.002Z,94.65
2022-11-27T04:45:37.320Z,94.26
2022-11-27T04:48:40.193Z,94.83
2022-11-27T04:51:42.744Z,94.56
2022-11-27T04:54:45.602Z,93.43
2022-11-27T04:57:48.223Z,93.88
2022-11-27T05:00:51.132Z,94.42
2022-11-27T05:03:53.696Z,94.58
2022-11-27T05:06:56.856Z,94.24
2022-11-27T05:09:59.399Z,94.44
2022-11-27T05:13:02.282Z,94.34
2022-11-27T05:16:05.891Z,94.39
2022-11-27T05:19:10.783Z,93.44
2022-11-27T05:22:14.513Z,93.34
2022-11-27T05:25:18.733Z,93.48
2022-11-27T05:28:26.430Z,93.07
2022-11-27T05:31:29.892Z,92.87
2022-11-27T05:34:32.580Z,93.08
2022-11-27T05:37:35.516Z,92.90
2022-11-27T05:40:41.429Z,93.36
2022-11-27T05:43:44.693Z,93.00
2022-11-27T05:46:47.338Z,92.82
2022-11-27T05:49:50.415Z,92.68
2022-11-27T05:52:53.058Z,93.29
2022-11-27T05:56:00.634Z,93.93
2022-11-27T05:59:04.605Z,94.43
2022-11-27T06:02:07.599Z,94.55
2022-11-27T06:05:11.555Z,94.49
2022-11-27T06:08:14.188Z,94.55
2022-11-27T06:11:20.201Z,94.35
2022-11-27T06:14:24.422Z,94.44
2022-11-27T06:17:29.258Z,93.84
2022-11-27T06:20:34.270Z,93.02
2022-11-27T06:23:39.131Z,93.47
2022-11-27T06:26:43.501Z,93.17
2022-11-27T06:29:48.550Z,93.56
2022-11-27T06:32:52.740Z,93.26
2022-11-27T06:35:57.927Z,93.86
2022-11-27T06:39:05.457Z,94.99
2022-11-27T06:42:09.958Z,94.87
2022-11-27T06:45:15.126Z,94.69
2022-11-27T06:48:19.682Z,94.49
2022-11-27T06:51:30.521Z,94.37
2022-11-27T06:54:34.565Z,94.14
2022-11-27T06:57:38.995Z,94.09
2022-11-27T07:00:47.667Z,94.09
2022-11-27T07:03:51.325Z,94.59
2022-11-27T07:06:56.322Z,94.73
2022-11-27T07:10:02.493Z,94.89
2022-11-27T07:13:05.498Z,95.32
2022-11-27T07:16:13.171Z,95.53
2022-11-27T07:19:16.456Z,95.43
2022-11-27T07:22:19.266Z,95.62
2022-11-27T07:25:22.201Z,95.82
2022-11-27T07:28:25.645Z,95.89
2022-11-27T07:31:30.501Z,96.23
2022-11-27T07:34:33.208Z,97.37
2022-11-27T07:37:36.337Z,97.46
2022-11-27T07:40:39.117Z,98.12
2022-11-27T07:43:43.280Z,98.48
2022-11-27T07:46:45.952Z,98.92
2022-11-27T07:49:49.005Z,98.52
2022-11-27T07:52:51.669Z,98.52
2022-11-27T07:55:54.772Z,98.41
2022-11-27T07:58:58.308Z,98.79
2022-11-27T08:02:03.486Z,98.60
2022-11-27T08:05:12.168Z,98.54
2022-11-27T08:08:15.583Z,98.29
2022-11-27T08:11:36.863Z,97.89
2022-11-27T08:14:39.914Z,97.67
2022-11-27T08:17:43.142Z,97.49
2022-11-27T08:20:45.789Z,97.23
2022-11-27T08:23:48.751Z,97.13
2022-11-27T08:26:52.424Z,96.86
2022-11-27T08:29:55.403Z,97.03
2022-11-27T08:32:58.068Z,97.02
2022-11-27T08:36:01.515Z,97.07
2022-11-27T08:39:04.360Z,97.06
2022-11-27T08:42:07.423Z,96.95
2022-11-27T08:45:10.520Z,96.80
2022-11-27T08:48:13.479Z,96.86
2022-11-27T08:51:16.727Z,96.79
2022-11-27T08:54:19.753Z,96.72
2022-11-27T08:57:22.339Z,96.53
2022-11-27T09:00:28.057Z,96.05
2022-11-27T09:03:30.767Z,96.11
2022-11-27T09:06:37.311Z,96.26
2022-11-27T09:09:40.341Z,95.73
2022-11-27T09:12:44.783Z,95.51
2022-11-27T09:15:47.610Z,96.21
2022-11-27T09:18:52.739Z,96.00
2022-11-27T09:21:55.409Z,95.10
2022-11-27T09:24:58.318Z,94.47
2022-11-27T09:28:01.605Z,94.11
2022-11-27T09:31:06.388Z,94.17
2022-11-27T09:34:09.004Z,94.36
2022-11-27T09:37:11.878Z,93.94
2022-11-27T09:40:17.844Z,92.97
2022-11-27T09:43:30.511Z,92.72
2022-11-27T09:46:37.481Z,92.35
2022-11-27T09:49:55.172Z,92.30
2022-11-27T09:53:19.421Z,90.52
2022-11-27T09:56:23.658Z,90.97
2022-11-27T09:59:39.763Z,90.90
2022-11-27T10:02:43.565Z,90.06
2022-11-27T10:06:14.391Z,90.81
2022-11-27T10:09:16.913Z,91.05
2022-11-27T10:12:39.472Z,91.06
2022-11-27T10:15:52.105Z,91.10
2022-11-27T10:19:00.836Z,90.81
2022-11-27T10:22:21.711Z,90.52
2022-11-27T10:25:48.333Z,91.20
2022-11-27T10:29:01.642Z,90.89
2022-11-27T10:32:39.577Z,91.45
2022-11-27T10:35:38.765Z,91.21
2022-11-27T10:38:44.610Z,90.14
2022-11-27T10:41:57.957Z,90.18
2022-11-27T10:45:06.924Z,90.67
2022-11-27T10:48:11.088Z,90.22
2022-11-27T10:51:32.447Z,89.32
2022-11-27T10:54:39.578Z,87.83
2022-11-27T10:58:12.950Z,87.37
2022-11-27T11:01:22.890Z,87.50
2022-11-27T11:04:37.881Z,88.20
2022-11-27T11:07:43.440Z,88.09
2022-11-27T11:10:58.754Z,87.99
2022-11-27T11:14:02.252Z,88.69
2022-11-27T11:17:16.981Z,88.98
2022-11-27T11:20:25.311Z,88.99
2022-11-27T11:23:36.313Z,88.37
2022-11-27T11:26:45.809Z,88.21
2022-11-27T11:30:00.701Z,88.41
2022-11-27T11:33:05.681Z,88.72
2022-11-27T11:36:12.922Z,87.99
2022-11-27T11:39:26.631Z,88.09
2022-11-27T11:42:32.917Z,88.20
2022-11-27T11:45:44.818Z,88.28
2022-11-27T11:49:22.039Z,88.44
2022-11-27T11:52:45.280Z,88.31
2022-11-27T11:56:10.092Z,88.24
2022-11-27T11:59:30.200Z,88.04
2022-11-27T12:02:58.009Z,87.83
2022-11-27T12:06:25.896Z,88.01
2022-11-27T12:10:14.743Z,87.62
2022-11-27T12:13:36.918Z,87.64
2022-11-27T12:16:46.448Z,87.96
2022-11-27T12:20:15.582Z,87.81
2022-11-27T12:23:37.456Z,87.67
2022-11-27T12:26:55.804Z,87.15
2022-11-27T12:30:13.441Z,87.31
2022-11-27T12:33:27.934Z,87.15
2022-11-27T12:36:52.222Z,87.02
2022-11-27T12:40:10.382Z,86.85
2022-11-27T12:43:22.177Z,86.82
2022-11-27T12:46:54.829Z,87.19
2022-11-27T12:50:03.704Z,86.91
2022-11-27T12:53:24.712Z,87.04
2022-11-27T12:56:38.175Z,86.26
2022-11-27T12:59:46.920Z,86.35
2022-11-27T13:03:18.733Z,85.81
2022-11-27T13:06:26.456Z,86.66
2022-11-27T13:09:43.510Z,86.41
2022-11-27T13:13:11.800Z,86.36
2022-11-27T13:16:22.297Z,86.34
2022-11-27T13:19:44.109Z,85.82
2022-11-27T13:22:48.094Z,86.37
2022-11-27T13:25:56.349Z,86.12
2022-11-27T13:29:03.343Z,86.62
2022-11-27T13:32:08.842Z,86.83
2022-11-27T13:35:31.451Z,86.84
2022-11-27T13:38:36.636Z,86.95
2022-11-27T13:41:41.037Z,87.29
2022-11-27T13:44:53.935Z,87.66
2022-11-27T13:47:58.854Z,87.75
2022-11-27T13:51:02.528Z,87.80
2022-11-27T13:54:18.166Z,87.97
2022-11-27T13:57:22.197Z,88.10
2022-11-27T14:00:32.717Z,88.12
2022-11-27T14:03:36.776Z,88.33
2022-11-27T14:06:42.931Z,88.80
2022-11-27T14:09:50.656Z,88.76
2022-11-27T14:13:12.388Z,89.02
2022-11-27T14:16:37.161Z,89.00
2022-11-27T14:19:45.525Z,88.73
2022-11-27T14:23:13.264Z,88.73
2022-11-27T14:26:16.540Z,88.44
2022-11-27T14:29:24.590Z,87.65
2022-11-27T14:32:35.926Z,87.31
2022-11-27T14:35:40.698Z,87.21
2022-11-27T14:38:46.780Z,87.04
2022-11-27T14:42:02.851Z,87.50
2022-11-27T14:45:15.305Z,87.64
2022-11-27T14:48:30.559Z,87.32
2022-11-27T14:51:36.387Z,86.96
2022-11-27T14:54:40.604Z,87.24
2022-11-27T14:57:46.338Z,86.79
2022-11-27T15:01:05.991Z,87.49
2022-11-27T15:04:30.173Z,87.51
2022-11-27T15:07:45.434Z,87.57
2022-11-27T15:10:56.246Z,87.42
2022-11-27T15:14:02.578Z,87.46
2022-11-27T15:17:06.429Z,87.78
2022-11-27T15:20:29.924Z,87.77
2022-11-27T15:23:35.843Z,87.61
2022-11-27T15:26:45.103Z,87.47
2022-11-27T15:29:51.149Z,87.62
2022-11-27T15:32:55.695Z,87.80
2022-11-27T15:36:18.707Z,87.74
2022-11-27T15:39:38.498Z,87.88
2022-11-27T15:42:41.952Z,87.93
2022-11-27T15:45:45.295Z,88.04
2022-11-27T15:48:48.741Z,87.60
2022-11-27T15:51:52.454Z,87.14
2022-11-27T15:54:58.445Z,86.53
2022-11-27T15:58:02.679Z,86.57
2022-11-27T16:01:06.977Z,86.75
2022-11-27T16:04:10.038Z,86.91
2022-11-27T16:07:13.054Z,86.73
2022-11-27T16:10:16.136Z,86.58
2022-11-27T16:13:19.343Z,85.92
2022-11-27T16:16:22.591Z,85.48
2022-11-27T16:19:25.400Z,85.24
2022-11-27T16:22:29.251Z,85.62
2022-11-27T16:25:33.177Z,85.37
2022-11-27T16:28:36.332Z,85.16
2022-11-27T16:31:40.854Z,84.93
2022-11-27T16:34:44.329Z,84.81
2022-11-27T16:37:50.103Z,85.61
2022-11-27T16:41:01.015Z,85.65
2022-11-27T16:44:12.077Z,85.83
2022-11-27T16:47:16.785Z,86.48
2022-11-27T16:50:19.849Z,86.99
2022-11-27T16:53:25.405Z,87.08
2022-11-27T16:56:33.641Z,86.82
2022-11-27T16:59:40.028Z,86.81
2022-11-27T17:02:45.849Z,87.42
2022-11-27T17:05:51.577Z,87.42
2022-11-27T17:08:55.960Z,87.48
2022-11-27T17:11:59.297Z,86.91
2022-11-27T17:15:02.545Z,87.12
2022-11-27T17:18:06.002Z,87.48
2022-11-27T17:21:38.146Z,86.81
2022-11-27T17:24:42.058Z,86.74
2022-11-27T17:27:45.517Z,86.62
2022-11-27T17:30:49.980Z,86.45
2022-11-27T17:33:56.980Z,86.66
2022-11-27T17:37:00.758Z,87.58
2022-11-27T17:40:05.071Z,87.25
2022-11-27T17:43:10.692Z,86.81
2022-11-27T17:46:19.713Z,86.71
2022-11-27T17:49:24.783Z,86.38
2022-11-27T17:52:28.062Z,86.64
2022-11-27T17:55:33.687Z,87.37
2022-11-27T17:58:37.368Z,87.52
2022-11-27T18:01:41.011Z,87.71
2022-11-27T18:04:45.290Z,87.28
2022-11-27T18:07:48.806Z,87.01
2022-11-27T18:10:55.740Z,86.87
2022-11-27T18:14:00.916Z,87.44
2022-11-27T18:17:05.542Z,87.86
2022-11-27T18:20:09.119Z,88.29
2022-11-27T18:23:12.610Z,88.38
2022-11-27T18:26:18.519Z,88.72
2022-11-27T18:29:22.887Z,88.51
2022-11-27T18:32:26.373Z,88.65
2022-11-27T18:35:29.549Z,88.42
2022-11-27T18:38:33.503Z,88.63
2022-11-27T18:41:38.831Z,88.59
2022-11-27T18:44:44.848Z,88.58
2022-11-27T18:47:50.206Z,87.98
2022-11-27T18:50:53.955Z,87.49
2022-11-27T18:53:57.553Z,87.79
2022-11-27T18:57:01.568Z,88.13
2022-11-27T19:00:07.277Z,88.82
2022-11-27T19:03:10.613Z,88.50
2022-11-27T19:06:15.643Z,88.52
2022-11-27T19:09:19.723Z,88.28
2022-11-27T19:12:24.222Z,88.03
2022-11-27T19:15:27.448Z,88.16
2022-11-27T19:18:32.550Z,88.33
2022-11-27T19:21:35.983Z,88.29
2022-11-27T19:24:40.457Z,88.44
2022-11-27T19:27:44.440Z,88.23
2022-11-27T19:30:47.874Z,87.77
2022-11-27T19:34:03.040Z,87.50
2022-11-27T19:37:06.475Z,87.59
2022-11-27T19:40:10.221Z,87.52
2022-11-27T19:43:13.619Z,87.08
2022-11-27T19:46:18.082Z,87.49
2022-11-27T19:49:22.675Z,86.94
2022-11-27T19:52:26.192Z,87.03
2022-11-27T19:55:31.495Z,86.99
2022-11-27T19:58:35.345Z,86.88
2022-11-27T20:01:41.369Z,87.15
2022-11-27T20:04:46.259Z,88.50
2022-11-27T20:07:50.412Z,88.78
2022-11-27T20:10:54.727Z,89.58
2022-11-27T20:14:00.927Z,90.27
2022-11-27T20:17:06.068Z,90.52
2022-11-27T20:20:10.475Z,90.35
2022-11-27T20:23:15.279Z,90.87
2022-11-27T20:26:22.592Z,90.17
2022-11-27T20:29:26.073Z,89.77
2022-11-27T20:32:32.171Z,89.64
2022-11-27T20:35:35.738Z,90.01
2022-11-27T20:38:39.715Z,89.53
2022-11-27T20:41:43.182Z,89.66
2022-11-27T20:44:46.451Z,89.96
2022-11-27T20:47:49.769Z,91.72
2022-11-27T20:50:53.428Z,90.99
2022-11-27T20:53:59.157Z,90.86
2022-11-27T20:57:02.156Z,91.81
2022-11-27T21:00:06.155Z,92.58
2022-11-27T21:03:10.255Z,92.43
2022-11-27T21:06:14.699Z,91.77
2022-11-27T21:09:19.428Z,91.42
2022-11-27T21:12:25.271Z,91.08
2022-11-27T21:15:28.462Z,90.93
2022-11-27T21:18:32.216Z,90.70
2022-11-27T21:21:35.190Z,90.68
2022-11-27T21:24:39.007Z,90.46
2022-11-27T21:27:42.922Z,91.00
2022-11-27T21:30:48.995Z,92.33
2022-11-27T21:33:57.033Z,91.66
2022-11-27T21:37:01.336Z,90.92
2022-11-27T21:40:04.706Z,90.60
2022-11-27T21:43:07.739Z,90.36
2022-11-27T21:46:19.630Z,90.23
2022-11-27T21:49:23.131Z,89.91
2022-11-27T21:52:26.596Z,89.41
2022-11-27T21:55:29.772Z,89.52
2022-11-27T21:58:34.635Z,90.27
2022-11-27T22:01:37.864Z,90.51
2022-11-27T22:04:41.104Z,90.14
2022-11-27T22:07:45.283Z,89.81
2022-11-27T22:10:48.326Z,90.47
2022-11-27T22:13:50.822Z,91.15
2022-11-27T22:16:54.040Z,91.03
2022-11-27T22:19:56.615Z,90.46
2022-11-27T22:22:59.545Z,91.46
2022-11-27T22:26:08.017Z,91.02
2022-11-27T22:29:11.682Z,90.70
2022-11-27T22:32:14.405Z,90.42
2022-11-27T22:35:17.794Z,90.32
2022-11-27T22:38:20.429Z,90.46
2022-11-27T22:41:25.893Z,90.67
2022-11-27T22:44:28.518Z,90.51
2022-11-27T22:47:31.831Z,89.96
2022-11-27T22:50:34.450Z,89.35
2022-11-27T22:53:38.425Z,88.04
2022-11-27T22:56:41.742Z,89.20
2022-11-27T22:59:45.114Z,88.16
2022-11-27T23:02:48.614Z,86.98
2022-11-27T23:05:51.694Z,85.43
2022-11-27T23:08:54.881Z,84.77
2022-11-27T23:11:59.075Z,85.53
2022-11-27T23:15:01.763Z,83.96
2022-11-27T23:18:04.822Z,84.96
2022-11-27T23:21:12.837Z,84.45
2022-11-27T23:24:16.202Z,83.87
2022-11-27T23:27:18.738Z,83.62
2022-11-27T23:30:21.672Z,82.75
2022-11-27T23:33:24.239Z,83.12
2022-11-27T23:36:27.203Z,82.77
2022-11-27T23:39:29.880Z,82.27
2022-11-27T23:42:35.538Z,82.18
2022-11-27T23:45:38.474Z,82.35
2022-11-27T23:48:42.240Z,82.55
2022-11-27T23:51:44.858Z,82.77
2022-11-27T23:54:49.112Z,82.76
2022-11-27T23:57:51.943Z,82.09
